Portada
METAR-TAF:

METAR-TAF

Aeroports :

Pine Ridge, Dakota del Sud, Estats Units d'Amèrica

latitud: 43-01-32N, longitud: 102-31-23W, altitud: 1015 m

Observació

L'informe es va fer fa 15 minuts, a les 04:52 UTC
Vent 5 kt del Oest
Temperatura -3°C
Humitat 68%
Pressió 1019 hPa
Visibilitat: 16.1 km
Cel clar

METAR: KIEN 110452Z AUTO 27005KT 10SM CLR M03/M08 A3009 RMK AO2 SLP233 T10281078

Hora: 22:07 (05:07 UTC)


TAF: manca

Observacions i pronòstics meteorològics de més de 4000 aeroports (METAR i TAF).

Les estacions disponibles són els punts grocs i vermells al mapa.

Posi el ratolí al punt desitjat per veure el nom de l'estació.

Feu clic per veure les observacions i els pronòstics meteorològics.

Per canviar el mapa: feu clic els botons verds amb una creu de color negre per apropar; al botó verd amb un guió per allunyar la imatge; o en les fletxes verdes per a mapes adjacents.


METAR-TAF: